Аэропорт: Шереметьево. Москва

ICAO: UUEE

METAR:
2020-10-24 06:30:00
UUEE 240630Z 27006MPS 9999 BKN017 09/06 Q1007 R24L/290051 R24R/290051 NOSIG
METAR:
2020-10-24 04:57:00
TAF UUEE 240457Z 2406/2506 27007MPS 9000 SCT016 TX09/2406Z TN06/2503Z TEMPO 2406/2418 -SHRA BKN016CB BECMG 2416/2418 21003MPS TEMPO 2418/2506 1000 -SHRA BR FEW004 SCT016CB